createdAt,value
2022-12-05T00:02:46.712Z,14.50
2022-12-05T00:05:35.597Z,14.45
2022-12-05T00:08:24.617Z,14.36
2022-12-05T00:11:22.558Z,14.22
2022-12-05T00:14:06.994Z,14.21
2022-12-05T00:16:55.735Z,14.30
2022-12-05T00:19:37.987Z,14.27
2022-12-05T00:22:26.602Z,14.20
2022-12-05T00:25:08.978Z,13.94
2022-12-05T00:27:57.709Z,14.04
2022-12-05T00:30:39.983Z,14.22
2022-12-05T00:33:28.661Z,14.36
2022-12-05T00:36:12.975Z,14.27
2022-12-05T00:38:55.610Z,14.28
2022-12-05T00:41:44.655Z,14.31
2022-12-05T00:44:27.058Z,14.30
2022-12-05T00:47:15.709Z,14.22
2022-12-05T00:49:58.224Z,14.18
2022-12-05T00:52:47.600Z,14.29
2022-12-05T00:55:30.024Z,14.21
2022-12-05T00:58:19.672Z,14.28
2022-12-05T01:01:08.748Z,14.26
2022-12-05T01:03:54.514Z,14.41
2022-12-05T01:06:43.613Z,14.34
2022-12-05T01:09:33.953Z,14.37
2022-12-05T01:12:16.672Z,14.37
2022-12-05T01:15:05.017Z,14.24
2022-12-05T01:17:47.596Z,14.36
2022-12-05T01:20:36.933Z,14.41
2022-12-05T01:23:19.669Z,14.28
2022-12-05T01:26:08.730Z,14.20
2022-12-05T01:28:51.156Z,14.22
2022-12-05T01:31:41.679Z,14.23
2022-12-05T01:34:25.980Z,14.30
2022-12-05T01:37:14.559Z,14.37
2022-12-05T01:40:04.806Z,14.28
2022-12-05T01:42:53.931Z,14.28
2022-12-05T01:45:48.735Z,14.17
2022-12-05T01:48:44.080Z,14.18
2022-12-05T01:51:26.692Z,14.30
2022-12-05T01:54:16.947Z,14.36
2022-12-05T01:57:03.582Z,14.22
2022-12-05T01:59:51.982Z,14.23
2022-12-05T02:02:42.673Z,14.17
2022-12-05T02:05:35.554Z,14.22
2022-12-05T02:08:19.101Z,14.16
2022-12-05T02:11:07.535Z,14.16
2022-12-05T02:14:19.938Z,14.24
2022-12-05T02:17:14.648Z,14.22
2022-12-05T02:20:38.536Z,14.27
2022-12-05T02:24:13.542Z,14.51
2022-12-05T02:27:14.681Z,14.45
2022-12-05T02:30:20.257Z,14.35
2022-12-05T02:33:12.683Z,14.50
2022-12-05T02:36:03.957Z,14.53
2022-12-05T02:39:06.644Z,14.55
2022-12-05T02:42:00.943Z,14.53
2022-12-05T02:45:20.675Z,14.59
2022-12-05T02:48:03.990Z,14.75
2022-12-05T02:50:55.588Z,14.91
2022-12-05T02:53:38.915Z,14.99
2022-12-05T02:56:28.569Z,15.07
2022-12-05T02:59:10.898Z,14.99
2022-12-05T03:01:59.652Z,15.23
2022-12-05T03:04:41.938Z,15.40
2022-12-05T03:07:32.683Z,15.51
2022-12-05T03:10:23.639Z,15.58
2022-12-05T03:13:19.530Z,15.69
2022-12-05T03:16:07.943Z,15.78
2022-12-05T03:19:09.543Z,15.88
2022-12-05T03:22:09.894Z,16.25
2022-12-05T03:24:51.530Z,16.56
2022-12-05T03:28:01.913Z,16.73
2022-12-05T03:30:53.773Z,16.97
2022-12-05T03:33:43.947Z,17.36
2022-12-05T03:36:42.578Z,17.75
2022-12-05T03:39:34.306Z,18.06
2022-12-05T03:42:30.625Z,18.39
2022-12-05T03:45:22.610Z,18.57
2022-12-05T03:48:33.619Z,18.91
2022-12-05T03:51:26.588Z,19.48
2022-12-05T03:54:26.972Z,19.43
2022-12-05T03:57:33.611Z,19.66
2022-12-05T04:00:29.073Z,19.95
2022-12-05T04:03:47.702Z,20.15
2022-12-05T04:06:33.941Z,20.10
2022-12-05T04:09:36.678Z,20.52
2022-12-05T04:12:28.285Z,20.76
2022-12-05T04:15:22.531Z,20.77
2022-12-05T04:18:13.609Z,20.59
2022-12-05T04:21:24.669Z,20.98
2022-12-05T04:24:31.521Z,21.37
2022-12-05T04:27:25.331Z,21.37
2022-12-05T04:30:22.530Z,21.43
2022-12-05T04:33:07.794Z,21.65
2022-12-05T04:36:07.540Z,21.68
2022-12-05T04:39:03.096Z,21.57
2022-12-05T04:42:10.621Z,21.65
2022-12-05T04:45:04.065Z,21.59
2022-12-05T04:47:52.546Z,21.66
2022-12-05T04:50:43.577Z,21.69
2022-12-05T04:53:27.941Z,21.64
2022-12-05T04:56:20.541Z,21.73
2022-12-05T04:59:03.872Z,21.50
2022-12-05T05:02:03.715Z,21.72
2022-12-05T05:04:57.933Z,21.64
2022-12-05T05:08:00.656Z,21.65
2022-12-05T05:10:57.118Z,21.70
2022-12-05T05:13:38.540Z,21.81
2022-12-05T05:16:43.584Z,21.83
2022-12-05T05:19:32.582Z,21.82
2022-12-05T05:22:21.010Z,22.09
2022-12-05T05:25:02.567Z,22.05
2022-12-05T05:27:51.530Z,22.20
2022-12-05T05:30:33.941Z,22.24
2022-12-05T05:33:22.597Z,22.23
2022-12-05T05:36:04.885Z,22.21
2022-12-05T05:38:57.511Z,22.60
2022-12-05T05:41:41.977Z,22.84
2022-12-05T05:44:30.601Z,22.92
2022-12-05T05:47:19.570Z,22.99
2022-12-05T05:50:01.850Z,23.25
2022-12-05T05:52:53.011Z,23.37
2022-12-05T05:55:41.086Z,23.53
2022-12-05T05:58:23.597Z,23.39
2022-12-05T06:01:21.609Z,23.41
2022-12-05T06:04:04.067Z,23.34
2022-12-05T06:06:52.796Z,23.59
2022-12-05T06:09:35.072Z,23.84
2022-12-05T06:12:23.578Z,23.51
2022-12-05T06:15:05.947Z,23.64
2022-12-05T06:17:54.614Z,23.80
2022-12-05T06:20:43.668Z,23.94
2022-12-05T06:23:27.250Z,24.04
2022-12-05T06:26:16.531Z,24.02
2022-12-05T06:29:04.969Z,24.07
2022-12-05T06:31:50.702Z,23.95
2022-12-05T06:34:45.608Z,23.90
2022-12-05T06:37:27.878Z,24.07
2022-12-05T06:40:16.529Z,24.16
2022-12-05T06:42:58.785Z,24.08
2022-12-05T06:45:47.717Z,24.06
2022-12-05T06:48:35.955Z,23.99
2022-12-05T06:51:20.530Z,23.91
2022-12-05T06:54:08.938Z,24.12
2022-12-05T06:56:51.526Z,24.16
2022-12-05T06:59:33.821Z,24.01
2022-12-05T07:02:25.967Z,24.13
2022-12-05T07:05:07.954Z,23.96
2022-12-05T07:07:56.654Z,24.11
2022-12-05T07:10:44.897Z,23.92
2022-12-05T07:13:27.508Z,24.06
2022-12-05T07:16:16.685Z,24.12
2022-12-05T07:19:05.683Z,24.21
2022-12-05T07:22:02.486Z,24.26
2022-12-05T07:24:52.656Z,24.39
2022-12-05T07:27:41.588Z,24.20
2022-12-05T07:30:23.876Z,24.31
2022-12-05T07:33:12.567Z,24.51
2022-12-05T07:36:01.636Z,24.55
2022-12-05T07:38:44.991Z,24.56
2022-12-05T07:41:37.624Z,24.34
2022-12-05T07:44:23.916Z,24.65
2022-12-05T07:47:12.811Z,24.57
2022-12-05T07:49:55.035Z,24.53
2022-12-05T07:52:44.952Z,24.36
2022-12-05T07:55:33.625Z,24.33
2022-12-05T07:58:15.816Z,24.53
2022-12-05T08:01:04.557Z,24.60
2022-12-05T08:03:53.956Z,24.65
2022-12-05T08:06:38.639Z,24.26
2022-12-05T08:09:27.524Z,24.34
2022-12-05T08:12:16.701Z,24.08
2022-12-05T08:15:04.860Z,24.42
2022-12-05T08:17:46.556Z,24.63
2022-12-05T08:20:34.869Z,24.55
2022-12-05T08:23:23.647Z,24.43
2022-12-05T08:26:10.927Z,24.55
2022-12-05T08:29:01.611Z,24.42
2022-12-05T08:31:56.584Z,24.48
2022-12-05T08:34:38.884Z,24.58
2022-12-05T08:37:27.579Z,24.58
2022-12-05T08:40:17.584Z,24.72
2022-12-05T08:42:59.860Z,24.75
2022-12-05T08:45:48.674Z,24.67
2022-12-05T08:48:31.887Z,24.50
2022-12-05T08:51:21.596Z,24.65
2022-12-05T08:54:03.905Z,24.62
2022-12-05T08:56:52.674Z,24.70
2022-12-05T08:59:35.555Z,24.60
2022-12-05T09:02:19.059Z,24.39
2022-12-05T09:05:26.418Z,24.47
2022-12-05T09:08:16.645Z,24.18
2022-12-05T09:10:58.831Z,24.37
2022-12-05T09:13:47.681Z,24.36
2022-12-05T09:16:37.499Z,24.33
2022-12-05T09:19:32.583Z,24.42
2022-12-05T09:22:27.648Z,24.43
2022-12-05T09:25:17.603Z,24.33
2022-12-05T09:27:59.882Z,24.42
2022-12-05T09:30:48.722Z,24.44
2022-12-05T09:33:30.922Z,24.38
2022-12-05T09:36:30.540Z,24.37
2022-12-05T09:39:13.907Z,24.34
2022-12-05T09:42:13.549Z,24.33
2022-12-05T09:45:05.033Z,24.24
2022-12-05T09:48:23.598Z,24.18
2022-12-05T09:51:18.557Z,24.29
2022-12-05T09:54:01.008Z,24.08
2022-12-05T09:56:49.523Z,24.12
2022-12-05T09:59:37.961Z,24.01
2022-12-05T10:02:26.541Z,23.90
2022-12-05T10:05:16.740Z,23.92
2022-12-05T10:08:10.550Z,23.87
2022-12-05T10:11:09.853Z,23.69
2022-12-05T10:14:14.490Z,23.75
2022-12-05T10:17:08.978Z,23.78
2022-12-05T10:19:54.527Z,23.67
2022-12-05T10:22:45.952Z,23.72
2022-12-05T10:25:30.535Z,23.61
2022-12-05T10:28:41.938Z,23.62
2022-12-05T10:31:28.669Z,23.33
2022-12-05T10:34:46.627Z,23.53
2022-12-05T10:37:31.500Z,23.33
2022-12-05T10:40:21.543Z,23.45
2022-12-05T10:43:03.903Z,23.21
2022-12-05T10:45:55.640Z,23.11
2022-12-05T10:48:48.621Z,22.97
2022-12-05T10:51:37.032Z,22.92
2022-12-05T10:54:38.623Z,22.92
2022-12-05T10:57:26.681Z,22.86
2022-12-05T11:00:26.502Z,22.74
2022-12-05T11:03:46.840Z,22.64
2022-12-05T11:06:38.536Z,22.63
2022-12-05T11:09:29.873Z,22.56
2022-12-05T11:12:30.624Z,22.57
2022-12-05T11:15:23.610Z,22.40
2022-12-05T11:18:33.642Z,22.29
2022-12-05T11:21:29.421Z,22.21
2022-12-05T11:24:36.625Z,22.25
2022-12-05T11:27:31.578Z,22.13
2022-12-05T11:30:14.148Z,21.99
2022-12-05T11:33:02.518Z,21.91
2022-12-05T11:35:44.791Z,21.81
2022-12-05T11:38:42.671Z,21.74
2022-12-05T11:41:43.262Z,21.55
2022-12-05T11:44:49.518Z,21.43
2022-12-05T11:47:46.709Z,21.45
2022-12-05T11:50:56.684Z,21.39
2022-12-05T11:54:13.390Z,21.19
2022-12-05T11:57:25.716Z,21.09
2022-12-05T12:00:35.035Z,20.93
2022-12-05T12:03:33.321Z,20.86
2022-12-05T12:06:50.896Z,20.77
2022-12-05T12:09:45.505Z,20.61
2022-12-05T12:12:33.734Z,20.58
2022-12-05T12:15:46.938Z,20.44
2022-12-05T12:18:48.029Z,20.34
2022-12-05T12:21:38.927Z,20.20
2022-12-05T12:24:30.852Z,20.14
2022-12-05T12:27:53.661Z,20.14
2022-12-05T12:31:27.875Z,20.09
2022-12-05T12:34:38.470Z,20.00
2022-12-05T12:37:54.856Z,19.93
2022-12-05T12:40:54.506Z,19.81
2022-12-05T12:44:03.943Z,19.70
2022-12-05T12:47:18.567Z,19.67
2022-12-05T12:50:30.553Z,19.61
2022-12-05T12:53:16.001Z,19.51
2022-12-05T12:56:21.613Z,19.52
2022-12-05T12:59:23.113Z,19.54
2022-12-05T13:02:20.632Z,19.48
2022-12-05T13:05:28.700Z,19.42
2022-12-05T13:08:38.525Z,19.37
2022-12-05T13:11:23.286Z,19.31
2022-12-05T13:14:15.507Z,19.30
2022-12-05T13:17:06.931Z,19.29
2022-12-05T13:20:00.541Z,19.22
2022-12-05T13:22:56.555Z,19.18
2022-12-05T13:25:47.223Z,19.19
2022-12-05T13:28:39.599Z,19.08
2022-12-05T13:31:42.008Z,19.07
2022-12-05T13:34:53.517Z,19.05
2022-12-05T13:37:55.506Z,19.01
2022-12-05T13:41:07.620Z,19.00
2022-12-05T13:44:06.269Z,18.93
2022-12-05T13:46:57.643Z,18.85
2022-12-05T13:49:46.631Z,18.78
2022-12-05T13:52:41.591Z,18.76
2022-12-05T13:55:41.904Z,18.76
2022-12-05T13:58:33.507Z,18.68
2022-12-05T14:01:40.810Z,18.56
2022-12-05T14:04:54.501Z,18.54
2022-12-05T14:07:46.987Z,18.54
2022-12-05T14:10:58.591Z,18.43
2022-12-05T14:13:49.997Z,18.44
2022-12-05T14:16:31.519Z,18.38
2022-12-05T14:19:45.513Z,18.41
2022-12-05T14:22:53.633Z,18.34
2022-12-05T14:25:59.533Z,18.32
2022-12-05T14:28:59.618Z,18.34
2022-12-05T14:32:07.035Z,18.31
2022-12-05T14:35:05.453Z,18.23
2022-12-05T14:38:04.142Z,18.16
2022-12-05T14:41:04.115Z,18.08
2022-12-05T14:43:58.080Z,18.07
2022-12-05T14:46:48.591Z,18.00
2022-12-05T14:49:58.952Z,18.03
2022-12-05T14:52:48.526Z,17.96
2022-12-05T14:55:38.883Z,17.96
2022-12-05T14:58:49.478Z,17.94
2022-12-05T15:01:50.624Z,17.92
2022-12-05T15:04:58.991Z,17.89
2022-12-05T15:07:48.639Z,17.84
2022-12-05T15:10:31.911Z,17.79
2022-12-05T15:13:28.660Z,17.77
2022-12-05T15:16:25.978Z,17.76
2022-12-05T15:19:19.537Z,17.73
2022-12-05T15:22:12.755Z,17.65
2022-12-05T15:24:55.069Z,17.63
2022-12-05T15:27:43.782Z,17.60
2022-12-05T15:30:40.589Z,17.59
2022-12-05T15:33:23.386Z,17.52
2022-12-05T15:36:13.606Z,17.49
2022-12-05T15:39:03.522Z,17.39
2022-12-05T15:41:46.610Z,17.45
2022-12-05T15:44:37.395Z,17.53
2022-12-05T15:47:40.602Z,17.52
2022-12-05T15:50:41.885Z,17.38
2022-12-05T15:53:26.807Z,17.36
2022-12-05T15:56:28.576Z,17.37
2022-12-05T15:59:20.927Z,17.33
2022-12-05T16:02:56.753Z,17.29
2022-12-05T16:05:45.988Z,17.24
2022-12-05T16:08:28.475Z,17.24
2022-12-05T16:11:15.520Z,17.27
2022-12-05T16:14:11.499Z,17.21
2022-12-05T16:17:01.672Z,17.20
2022-12-05T16:19:51.472Z,17.15
2022-12-05T16:22:48.800Z,17.16
2022-12-05T16:25:41.743Z,17.10
2022-12-05T16:28:34.799Z,17.02
2022-12-05T16:31:19.236Z,17.09
2022-12-05T16:34:29.707Z,17.10
2022-12-05T16:37:23.056Z,17.13
2022-12-05T16:40:11.511Z,17.09
2022-12-05T16:43:11.036Z,17.08
2022-12-05T16:45:55.845Z,17.05
2022-12-05T16:48:38.152Z,17.00
2022-12-05T16:51:36.440Z,16.89
2022-12-05T16:54:18.934Z,16.97
2022-12-05T16:57:08.871Z,16.93
2022-12-05T16:59:57.837Z,16.94
2022-12-05T17:02:41.556Z,16.79
2022-12-05T17:05:24.966Z,16.72
2022-12-05T17:08:13.752Z,16.71
2022-12-05T17:11:03.611Z,16.74
2022-12-05T17:13:46.413Z,16.73
2022-12-05T17:16:36.747Z,16.70
2022-12-05T17:19:31.793Z,16.71
2022-12-05T17:22:23.872Z,16.78
2022-12-05T17:25:13.501Z,16.72
2022-12-05T17:28:03.304Z,16.68
2022-12-05T17:30:46.658Z,16.69
2022-12-05T17:33:36.705Z,16.54
2022-12-05T17:36:18.975Z,16.52
2022-12-05T17:39:08.237Z,16.53
2022-12-05T17:41:51.172Z,16.56
2022-12-05T17:44:40.599Z,16.53
2022-12-05T17:47:23.134Z,16.49
2022-12-05T17:50:14.128Z,16.58
2022-12-05T17:53:07.596Z,16.51
2022-12-05T17:55:57.465Z,16.49
2022-12-05T17:58:41.240Z,16.43
2022-12-05T18:01:31.105Z,16.46
2022-12-05T18:04:15.200Z,16.46
2022-12-05T18:07:07.516Z,16.53
2022-12-05T18:09:50.141Z,16.53
2022-12-05T18:12:39.663Z,16.47
2022-12-05T18:15:23.114Z,16.43
2022-12-05T18:18:13.556Z,16.46
2022-12-05T18:21:02.627Z,16.42
2022-12-05T18:23:58.489Z,16.31
2022-12-05T18:26:47.551Z,16.34
2022-12-05T18:29:37.663Z,16.29
2022-12-05T18:32:28.500Z,16.34
2022-12-05T18:35:13.173Z,16.25
2022-12-05T18:38:02.588Z,16.24
2022-12-05T18:40:44.976Z,16.19
2022-12-05T18:43:33.985Z,16.27
2022-12-05T18:46:15.957Z,16.28
2022-12-05T18:49:04.820Z,16.26
2022-12-05T18:51:47.878Z,16.18
2022-12-05T18:54:36.484Z,16.24
2022-12-05T18:57:19.255Z,16.21
2022-12-05T19:00:09.567Z,16.18
2022-12-05T19:02:51.934Z,16.16
2022-12-05T19:05:40.554Z,16.17
2022-12-05T19:08:24.432Z,16.14
2022-12-05T19:11:14.600Z,16.19
2022-12-05T19:13:56.916Z,16.12
2022-12-05T19:16:46.596Z,16.19
2022-12-05T19:19:30.178Z,16.18
2022-12-05T19:22:19.456Z,16.16
2022-12-05T19:25:09.515Z,16.13
2022-12-05T19:27:51.635Z,16.11
2022-12-05T19:30:33.805Z,16.07
2022-12-05T19:33:22.514Z,16.01
2022-12-05T19:36:13.825Z,15.99
2022-12-05T19:39:04.473Z,15.95
2022-12-05T19:41:54.504Z,16.03
2022-12-05T19:44:43.501Z,16.00
2022-12-05T19:47:32.551Z,16.02
2022-12-05T19:50:21.396Z,16.02
2022-12-05T19:53:04.677Z,16.02
2022-12-05T19:55:53.561Z,15.95
2022-12-05T19:58:37.554Z,15.98
2022-12-05T20:01:29.611Z,16.00
2022-12-05T20:04:14.491Z,16.05
2022-12-05T20:07:04.468Z,16.03
2022-12-05T20:09:52.825Z,16.07
2022-12-05T20:12:35.554Z,16.02
2022-12-05T20:15:17.793Z,16.05
2022-12-05T20:18:06.557Z,16.04
2022-12-05T20:21:05.117Z,16.06
2022-12-05T20:23:55.567Z,16.05
2022-12-05T20:26:47.817Z,16.00
2022-12-05T20:29:36.419Z,15.99
2022-12-05T20:32:19.840Z,16.02
2022-12-05T20:35:10.520Z,16.02
2022-12-05T20:37:52.778Z,16.06
2022-12-05T20:40:41.536Z,16.06
2022-12-05T20:43:30.516Z,16.06
2022-12-05T20:46:24.423Z,16.05
2022-12-05T20:49:14.530Z,16.03
2022-12-05T20:52:03.884Z,15.99
2022-12-05T20:54:45.812Z,15.96
2022-12-05T20:57:34.533Z,15.97
2022-12-05T21:00:16.949Z,15.98
2022-12-05T21:03:05.540Z,16.00
2022-12-05T21:05:47.759Z,15.97
2022-12-05T21:08:36.590Z,15.94
2022-12-05T21:11:19.903Z,15.94
2022-12-05T21:14:09.534Z,15.91
2022-12-05T21:16:53.879Z,15.92
2022-12-05T21:19:42.590Z,15.86
2022-12-05T21:22:24.829Z,15.83
2022-12-05T21:25:13.531Z,15.85
2022-12-05T21:27:56.014Z,15.78
2022-12-05T21:30:45.593Z,15.79
2022-12-05T21:33:29.058Z,15.75
2022-12-05T21:36:18.547Z,15.78
2022-12-05T21:39:00.808Z,15.77
2022-12-05T21:41:49.367Z,15.76
2022-12-05T21:44:38.425Z,15.77
2022-12-05T21:47:26.804Z,15.78
2022-12-05T21:50:09.563Z,15.69
2022-12-05T21:52:57.789Z,15.65
2022-12-05T21:55:40.530Z,15.49
2022-12-05T21:58:28.812Z,15.54
2022-12-05T22:01:11.450Z,15.58
2022-12-05T22:04:03.378Z,15.51
2022-12-05T22:06:45.804Z,15.47
2022-12-05T22:09:34.395Z,15.42
2022-12-05T22:12:16.784Z,15.34
2022-12-05T22:15:05.462Z,15.34
2022-12-05T22:17:54.402Z,15.34
2022-12-05T22:20:43.513Z,15.37
2022-12-05T22:23:32.833Z,15.40
2022-12-05T22:26:24.758Z,15.44
2022-12-05T22:29:12.789Z,15.46
2022-12-05T22:31:54.567Z,15.42
2022-12-05T22:34:43.792Z,15.45
2022-12-05T22:37:25.911Z,15.42
2022-12-05T22:40:14.789Z,15.41
2022-12-05T22:42:56.477Z,15.38
2022-12-05T22:45:38.709Z,15.41
2022-12-05T22:48:27.544Z,15.45
2022-12-05T22:51:23.513Z,15.55
2022-12-05T22:54:12.733Z,15.66
2022-12-05T22:56:54.542Z,15.63
2022-12-05T22:59:42.787Z,15.64
2022-12-05T23:02:24.554Z,15.68
2022-12-05T23:05:13.726Z,15.61
2022-12-05T23:07:56.498Z,15.58
2022-12-05T23:10:45.747Z,15.71
2022-12-05T23:13:27.456Z,15.72
2022-12-05T23:16:22.579Z,15.72
2022-12-05T23:19:06.779Z,15.70
2022-12-05T23:21:55.404Z,15.65
2022-12-05T23:24:50.413Z,15.49
2022-12-05T23:27:32.680Z,15.43
2022-12-05T23:30:22.413Z,15.38
2022-12-05T23:33:06.381Z,15.37
2022-12-05T23:35:56.544Z,15.23
2022-12-05T23:38:46.863Z,15.19
2022-12-05T23:41:31.495Z,15.05
2022-12-05T23:44:20.395Z,15.05
2022-12-05T23:47:10.485Z,15.10
2022-12-05T23:49:59.912Z,15.04
2022-12-05T23:52:44.450Z,15.10
2022-12-05T23:55:32.756Z,15.02
2022-12-05T23:58:15.359Z,14.91
